Time;durP1;ratioP1;P1;durP2;ratioP2;P2;SDS_P1;SDS_P2;PMS_P1;PMS_P2;Temp;Humidity;BMP_temperature;BMP_pressure;BME280_temperature;BME280_humidity;BME280_pressure;Samples;Min_cycle;Max_cycle;Signal;HPM_P1;HPM_P2
2023/04/24 00:01:52;;;;;;;1.95;0.90;;;16.20;68.00;;;;;;5035341;28;20388;-67
2023/04/24 00:04:18;;;;;;;2.28;0.70;;;16.20;67.90;;;;;;5033738;28;20022;-67
2023/04/24 00:06:43;;;;;;;2.22;1.08;;;16.20;68.00;;;;;;5033892;28;20112;-67
2023/04/24 00:09:09;;;;;;;2.45;1.38;;;16.20;68.00;;;;;;5035176;28;20025;-67
2023/04/24 00:11:35;;;;;;;1.52;0.88;;;16.20;67.90;;;;;;5035089;28;20500;-67
2023/04/24 00:14:01;;;;;;;1.98;1.02;;;16.20;67.90;;;;;;5033692;28;20446;-67
2023/04/24 00:16:27;;;;;;;1.65;1.00;;;16.20;68.00;;;;;;5033744;28;20214;-67
2023/04/24 00:18:53;;;;;;;1.88;0.80;;;16.20;68.00;;;;;;5033754;28;20025;-68
2023/04/24 00:21:19;;;;;;;2.22;0.80;;;16.20;68.10;;;;;;5034300;28;20030;-67
2023/04/24 00:23:44;;;;;;;0.63;0.63;;;16.20;68.20;;;;;;5034835;28;20036;-67
2023/04/24 00:26:10;;;;;;;0.82;0.82;;;16.20;68.30;;;;;;5035014;28;20028;-67
2023/04/24 00:28:36;;;;;;;1.65;0.75;;;16.20;68.30;;;;;;5034638;28;20034;-67
2023/04/24 00:31:01;;;;;;;1.65;0.82;;;16.20;68.30;;;;;;5034887;28;20029;-67
2023/04/24 00:33:27;;;;;;;1.00;0.80;;;16.20;68.70;;;;;;5034473;28;20099;-67
2023/04/24 00:35:52;;;;;;;1.48;0.77;;;16.20;68.60;;;;;;5034549;28;20432;-67
2023/04/24 00:38:18;;;;;;;0.73;0.70;;;16.20;68.70;;;;;;5034771;28;20025;-67
2023/04/24 00:40:44;;;;;;;1.65;1.23;;;16.10;68.70;;;;;;5033410;28;20025;-67
2023/04/24 00:43:10;;;;;;;1.75;0.90;;;16.10;68.70;;;;;;5034547;28;20029;-67
2023/04/24 00:45:36;;;;;;;1.70;0.80;;;16.20;68.70;;;;;;5033176;28;20055;-67
2023/04/24 00:48:01;;;;;;;2.13;0.77;;;16.10;68.80;;;;;;5033110;28;20464;-67
2023/04/24 00:50:27;;;;;;;2.30;0.90;;;16.10;68.90;;;;;;5016749;28;20067;-67
2023/04/24 00:52:53;;;;;;;1.13;0.75;;;16.10;69.10;;;;;;5034507;28;20086;-67
2023/04/24 00:55:19;;;;;;;1.83;0.50;;;16.10;69.10;;;;;;5034035;28;20470;-67
2023/04/24 00:57:45;;;;;;;1.67;0.80;;;16.10;69.00;;;;;;5033145;28;20458;-67
2023/04/24 01:00:11;;;;;;;3.25;0.85;;;16.10;69.20;;;;;;5033134;28;20155;-67
2023/04/24 01:02:43;;;;;;;0.90;0.75;;;16.10;69.20;;;;;;5032806;28;20096;-67
2023/04/24 01:05:09;;;;;;;1.55;0.60;;;16.10;69.20;;;;;;5032899;28;20075;-67
2023/04/24 01:07:34;;;;;;;2.28;0.75;;;16.10;69.10;;;;;;5034146;28;20029;-67
2023/04/24 01:10:00;;;;;;;1.85;0.80;;;16.10;69.20;;;;;;5032704;28;20022;-67
2023/04/24 01:12:26;;;;;;;1.33;0.80;;;16.10;69.20;;;;;;5034087;28;20144;-67
2023/04/24 01:14:51;;;;;;;1.67;0.70;;;16.10;69.30;;;;;;5033031;28;20017;-67
2023/04/24 01:17:17;;;;;;;1.23;0.70;;;16.10;69.30;;;;;;5032611;28;20029;-67
2023/04/24 01:19:46;;;;;;;1.48;0.90;;;16.10;69.20;;;;;;5034003;28;20022;-67
2023/04/24 01:22:16;;;;;;;1.02;0.75;;;16.10;69.50;;;;;;5016736;28;20064;-67
2023/04/24 01:24:42;;;;;;;2.42;0.70;;;16.10;69.50;;;;;;5032482;28;20025;-67
2023/04/24 01:27:08;;;;;;;0.95;0.80;;;16.10;69.40;;;;;;5033783;28;20041;-67
2023/04/24 01:29:34;;;;;;;0.95;0.70;;;16.10;69.50;;;;;;5034070;28;20443;-67
2023/04/24 01:32:00;;;;;;;2.75;1.00;;;16.10;69.50;;;;;;5031604;28;20026;-67
2023/04/24 01:34:25;;;;;;;0.65;0.63;;;16.10;69.50;;;;;;5033380;28;20491;-67
2023/04/24 01:36:51;;;;;;;1.17;0.80;;;16.10;69.70;;;;;;5033533;28;20029;-67
2023/04/24 01:39:17;;;;;;;1.75;0.82;;;16.10;69.60;;;;;;5033577;28;20018;-67
2023/04/24 01:41:43;;;;;;;1.42;0.75;;;16.10;69.70;;;;;;5033354;28;20029;-67
2023/04/24 01:44:08;;;;;;;0.80;0.70;;;16.10;69.70;;;;;;5032251;28;20036;-67
2023/04/24 01:46:35;;;;;;;1.42;0.98;;;16.10;69.80;;;;;;5033187;28;20036;-67
2023/04/24 01:49:01;;;;;;;0.98;0.70;;;16.10;69.80;;;;;;5032274;28;20022;-67
2023/04/24 01:51:26;;;;;;;2.15;0.70;;;16.00;69.80;;;;;;5031965;28;20039;-67
2023/04/24 01:53:53;;;;;;;1.63;1.00;;;16.10;69.80;;;;;;5033312;28;20025;-67
2023/04/24 01:56:22;;;;;;;1.75;0.90;;;16.10;69.80;;;;;;5032979;28;20120;-67
2023/04/24 01:58:49;;;;;;;1.17;0.80;;;16.10;69.80;;;;;;5031896;28;20060;-67
2023/04/24 02:01:18;;;;;;;0.65;0.60;;;16.10;69.80;;;;;;5015554;28;20103;-67
2023/04/24 02:03:44;;;;;;;1.02;0.90;;;16.00;69.90;;;;;;5032959;28;20025;-67
2023/04/24 02:06:09;;;;;;;1.08;0.70;;;16.00;69.90;;;;;;5032901;28;20109;-67
2023/04/24 02:08:35;;;;;;;1.90;0.70;;;16.10;70.00;;;;;;5033065;28;20029;-67
2023/04/24 02:11:02;;;;;;;1.75;0.90;;;16.00;70.00;;;;;;5033396;28;20476;-68
2023/04/24 02:13:27;;;;;;;1.00;0.80;;;16.00;70.00;;;;;;5032859;28;20496;-67
2023/04/24 02:15:53;;;;;;;1.15;0.60;;;16.00;70.00;;;;;;5031493;28;20026;-67
2023/04/24 02:18:19;;;;;;;0.80;0.80;;;16.00;71.10;;;;;;5033013;28;20018;-68
2023/04/24 02:20:45;;;;;;;0.75;0.65;;;16.00;70.10;;;;;;5032714;28;20029;-67
2023/04/24 02:23:11;;;;;;;1.13;0.70;;;16.10;71.20;;;;;;5032857;28;20028;-67
2023/04/24 02:25:36;;;;;;;0.95;0.73;;;16.00;70.70;;;;;;5032690;28;20040;-67
2023/04/24 02:28:02;;;;;;;0.82;0.70;;;16.00;70.20;;;;;;5032801;28;20083;-67
2023/04/24 02:30:28;;;;;;;0.70;0.70;;;16.00;70.20;;;;;;5032336;28;20079;-67
2023/04/24 02:32:55;;;;;;;1.67;0.70;;;16.00;70.30;;;;;;5032617;28;20017;-67
2023/04/24 02:35:20;;;;;;;3.10;0.77;;;16.00;70.30;;;;;;5032636;28;20021;-67
2023/04/24 02:37:46;;;;;;;2.58;0.80;;;16.00;70.60;;;;;;5032476;28;20369;-68
2023/04/24 02:40:11;;;;;;;1.80;0.82;;;16.00;70.50;;;;;;5032649;28;20029;-67
2023/04/24 02:42:37;;;;;;;0.85;0.60;;;16.00;70.70;;;;;;5031259;28;20057;-67
2023/04/24 02:45:03;;;;;;;1.80;0.95;;;16.00;70.70;;;;;;5030859;28;20108;-67
2023/04/24 02:47:29;;;;;;;1.17;0.73;;;16.00;70.80;;;;;;5031175;28;20108;-67
2023/04/24 02:49:54;;;;;;;0.57;0.47;;;16.00;70.90;;;;;;5032208;28;20033;-67
2023/04/24 02:52:20;;;;;;;1.98;0.98;;;16.00;70.90;;;;;;5032479;28;20029;-67
2023/04/24 02:54:46;;;;;;;1.60;0.70;;;16.00;71.00;;;;;;5031082;28;20033;-67
2023/04/24 02:57:11;;;;;;;1.17;0.77;;;16.00;71.00;;;;;;5031167;28;20018;-67
2023/04/24 02:59:37;;;;;;;1.20;0.80;;;16.00;71.10;;;;;;5032000;28;20061;-67
2023/04/24 03:02:02;;;;;;;0.60;0.60;;;16.00;71.00;;;;;;5032373;28;20049;-67
2023/04/24 03:04:28;;;;;;;1.00;0.57;;;16.00;71.20;;;;;;5030941;28;20112;-67
2023/04/24 03:06:54;;;;;;;1.17;0.82;;;16.00;71.20;;;;;;5032448;28;20100;-67
2023/04/24 03:09:21;;;;;;;0.57;0.57;;;16.00;71.10;;;;;;5032323;28;20025;-67
2023/04/24 03:11:48;;;;;;;0.90;0.70;;;16.00;71.20;;;;;;5031974;28;20028;-67
2023/04/24 03:14:14;;;;;;;1.13;1.02;;;16.00;71.20;;;;;;5032036;28;20060;-67
2023/04/24 03:16:39;;;;;;;1.20;0.68;;;16.00;71.20;;;;;;5032176;28;20045;-67
2023/04/24 03:19:05;;;;;;;1.63;0.90;;;16.00;71.20;;;;;;5032152;28;20030;-67
2023/04/24 03:21:31;;;;;;;0.93;0.60;;;16.00;71.20;;;;;;5030924;28;20029;-67
2023/04/24 03:23:56;;;;;;;1.00;0.82;;;16.00;71.20;;;;;;5031950;28;20029;-67
2023/04/24 03:26:22;;;;;;;1.35;0.88;;;16.00;71.30;;;;;;5032107;28;20022;-67
2023/04/24 03:28:47;;;;;;;1.13;0.60;;;16.00;71.30;;;;;;5031806;28;20126;-67
2023/04/24 03:31:15;;;;;;;0.50;0.50;;;16.00;71.30;;;;;;5031988;28;20022;-67
2023/04/24 03:33:40;;;;;;;1.02;0.75;;;16.00;71.30;;;;;;5031907;28;20492;-67
2023/04/24 03:36:06;;;;;;;1.00;0.75;;;16.00;71.40;;;;;;5031808;28;20111;-67
2023/04/24 03:38:32;;;;;;;1.42;0.82;;;16.00;71.50;;;;;;5032096;28;20025;-67
2023/04/24 03:40:58;;;;;;;1.30;0.90;;;16.00;71.50;;;;;;5031766;28;20036;-67
2023/04/24 03:43:23;;;;;;;1.67;0.80;;;16.00;71.50;;;;;;5030781;28;20037;-67
2023/04/24 03:45:49;;;;;;;1.08;0.60;;;16.00;71.60;;;;;;5030673;28;20463;-67
2023/04/24 03:48:15;;;;;;;1.10;0.60;;;16.00;71.50;;;;;;5031806;28;20566;-67
2023/04/24 03:50:40;;;;;;;0.50;0.50;;;16.00;71.50;;;;;;5031689;28;20049;-67
2023/04/24 03:53:06;;;;;;;1.63;0.80;;;16.00;71.50;;;;;;5031843;28;20021;-67
2023/04/24 03:55:31;;;;;;;1.20;0.60;;;16.00;71.60;;;;;;5032083;28;20479;-67
2023/04/24 03:57:57;;;;;;;1.75;0.60;;;16.00;71.60;;;;;;5035561;28;20075;-67
2023/04/24 04:00:22;;;;;;;0.82;0.60;;;16.00;71.60;;;;;;5035288;28;20029;-67
2023/04/24 04:02:48;;;;;;;0.73;0.73;;;16.00;71.60;;;;;;5035289;28;20068;-67
2023/04/24 04:05:14;;;;;;;0.70;0.70;;;16.00;71.60;;;;;;5035178;28;20042;-67
2023/04/24 04:07:39;;;;;;;0.88;0.70;;;16.00;71.60;;;;;;5035371;28;20083;-67
2023/04/24 04:10:06;;;;;;;1.15;0.75;;;16.00;71.60;;;;;;5034869;28;20088;-67
2023/04/24 04:12:32;;;;;;;1.75;0.90;;;16.00;71.60;;;;;;5035027;28;20017;-67
2023/04/24 04:14:58;;;;;;;0.80;0.60;;;16.00;71.70;;;;;;5035054;28;20048;-67
2023/04/24 04:17:24;;;;;;;1.38;0.70;;;16.00;71.70;;;;;;5035126;28;20028;-67
2023/04/24 04:19:50;;;;;;;2.15;1.27;;;16.00;71.70;;;;;;5033862;28;20392;-67
2023/04/24 04:22:16;;;;;;;0.73;0.63;;;16.00;71.80;;;;;;5035105;28;20127;-67
2023/04/24 04:24:42;;;;;;;0.52;0.52;;;16.00;71.80;;;;;;5034604;28;20045;-67
2023/04/24 04:27:08;;;;;;;0.52;0.52;;;16.00;71.80;;;;;;5034913;28;20021;-67
2023/04/24 04:29:34;;;;;;;1.17;0.70;;;16.00;71.90;;;;;;5034913;28;20053;-67
2023/04/24 04:32:01;;;;;;;0.70;0.60;;;15.90;71.80;;;;;;5034619;28;20044;-67
2023/04/24 04:34:26;;;;;;;0.82;0.65;;;16.00;71.90;;;;;;5034656;28;20396;-67
2023/04/24 04:36:52;;;;;;;0.95;0.60;;;15.90;71.90;;;;;;5034665;28;20022;-67
2023/04/24 04:39:18;;;;;;;0.68;0.60;;;16.00;71.90;;;;;;5034512;28;20041;-67
2023/04/24 04:41:46;;;;;;;0.70;0.70;;;16.00;71.90;;;;;;5034651;28;20037;-67
2023/04/24 04:44:12;;;;;;;0.52;0.45;;;16.00;71.90;;;;;;5017257;28;20088;-67
2023/04/24 04:46:38;;;;;;;0.50;0.50;;;16.00;71.90;;;;;;5033383;28;20496;-67
2023/04/24 04:49:04;;;;;;;0.60;0.60;;;16.00;71.90;;;;;;5034382;28;20036;-67
2023/04/24 04:51:29;;;;;;;0.82;0.63;;;16.00;71.90;;;;;;5033228;28;20033;-67
2023/04/24 04:53:55;;;;;;;0.73;0.68;;;15.90;71.90;;;;;;5034188;28;20013;-67
2023/04/24 04:56:21;;;;;;;2.33;0.80;;;16.00;71.90;;;;;;5034173;28;20111;-67
2023/04/24 04:58:47;;;;;;;1.10;0.70;;;15.90;71.90;;;;;;5034146;28;20018;-67
2023/04/24 05:01:13;;;;;;;0.55;0.52;;;16.00;71.90;;;;;;5034169;28;20075;-67
2023/04/24 05:03:38;;;;;;;0.50;0.50;;;15.90;72.00;;;;;;5034389;28;20029;-67
2023/04/24 05:06:04;;;;;;;1.08;0.68;;;16.00;72.00;;;;;;5034226;28;20057;-67
2023/04/24 05:08:30;;;;;;;0.50;0.50;;;16.00;72.00;;;;;;5032699;28;20037;-67
2023/04/24 05:10:55;;;;;;;1.02;0.70;;;16.00;72.10;;;;;;5034030;28;20026;-67
2023/04/24 05:13:21;;;;;;;0.93;0.80;;;15.90;72.00;;;;;;5033835;28;20026;-67
2023/04/24 05:15:47;;;;;;;1.10;0.65;;;15.90;72.00;;;;;;5034314;28;20033;-67
2023/04/24 05:18:12;;;;;;;0.75;0.70;;;15.90;72.00;;;;;;5034083;28;20400;-67
2023/04/24 05:20:39;;;;;;;0.60;0.60;;;15.90;72.00;;;;;;5034152;28;20476;-67
2023/04/24 05:23:04;;;;;;;0.57;0.57;;;15.90;72.00;;;;;;5033829;28;20017;-67
2023/04/24 05:25:35;;;;;;;1.00;0.65;;;16.00;72.10;;;;;;5033717;28;20215;-67
2023/04/24 05:28:00;;;;;;;0.60;0.50;;;15.90;72.00;;;;;;5032396;28;20505;-67
2023/04/24 05:30:26;;;;;;;1.17;0.70;;;15.90;72.00;;;;;;5033740;28;20111;-67
2023/04/24 05:32:52;;;;;;;0.85;0.80;;;16.00;72.10;;;;;;5033563;28;20043;-67
2023/04/24 05:35:18;;;;;;;0.60;0.60;;;15.90;72.10;;;;;;5032428;28;20515;-68
2023/04/24 05:37:44;;;;;;;1.15;0.70;;;15.90;72.10;;;;;;5033441;28;20101;-67
2023/04/24 05:40:10;;;;;;;1.13;0.70;;;15.90;72.10;;;;;;5032353;28;20452;-67
2023/04/24 05:42:36;;;;;;;1.50;0.80;;;16.00;72.30;;;;;;5033591;28;20017;-67
2023/04/24 05:45:02;;;;;;;2.10;0.70;;;15.90;72.30;;;;;;5032121;28;20108;-67
2023/04/24 05:47:28;;;;;;;0.82;0.55;;;15.90;72.40;;;;;;5033471;28;20037;-67
2023/04/24 05:49:54;;;;;;;1.38;0.80;;;16.00;72.50;;;;;;5033190;28;20021;-67
2023/04/24 05:52:19;;;;;;;1.20;0.70;;;16.00;72.60;;;;;;5033221;28;20022;-67
2023/04/24 05:54:45;;;;;;;1.13;0.70;;;16.00;72.60;;;;;;5033037;28;20025;-67
2023/04/24 05:57:10;;;;;;;1.35;0.50;;;16.00;72.70;;;;;;5033264;28;20026;-67
2023/04/24 05:59:38;;;;;;;0.90;0.60;;;16.00;72.70;;;;;;5033102;28;20086;-67
2023/04/24 06:02:04;;;;;;;0.98;0.77;;;16.00;72.70;;;;;;5015635;28;20018;-67
2023/04/24 06:04:29;;;;;;;0.75;0.70;;;16.00;72.80;;;;;;5033041;28;20025;-67
2023/04/24 06:06:55;;;;;;;1.48;0.60;;;15.90;72.70;;;;;;5032954;28;20049;-67
2023/04/24 06:09:24;;;;;;;0.60;0.60;;;15.90;72.80;;;;;;5032999;28;20100;-67
2023/04/24 06:11:52;;;;;;;1.50;0.75;;;15.90;72.80;;;;;;5031712;28;20033;-67
2023/04/24 06:14:18;;;;;;;1.00;0.77;;;16.00;72.90;;;;;;5032936;28;20051;-68
2023/04/24 06:16:44;;;;;;;0.47;0.47;;;15.90;72.90;;;;;;5033020;28;20025;-67
2023/04/24 06:19:10;;;;;;;2.22;0.80;;;16.00;73.00;;;;;;5032225;28;20025;-67
2023/04/24 06:21:35;;;;;;;0.93;0.55;;;15.90;72.90;;;;;;5031677;28;20048;-67
2023/04/24 06:24:02;;;;;;;2.30;0.73;;;15.90;73.00;;;;;;5032462;28;20061;-67
2023/04/24 06:26:27;;;;;;;2.05;0.60;;;15.90;72.60;;;;;;5031661;28;20064;-67
2023/04/24 06:28:56;;;;;;;0.95;0.60;;;16.00;72.40;;;;;;5015237;28;20452;-67
2023/04/24 06:31:22;;;;;;;0.50;0.50;;;15.90;72.10;;;;;;5032399;28;20025;-67
2023/04/24 06:33:48;;;;;;;0.73;0.60;;;16.00;71.90;;;;;;5031457;28;20033;-67
2023/04/24 06:36:14;;;;;;;1.45;0.88;;;16.00;71.70;;;;;;5031215;28;20025;-67
2023/04/24 06:38:39;;;;;;;1.05;0.52;;;16.00;71.70;;;;;;5032692;28;20468;-67
2023/04/24 06:41:05;;;;;;;1.38;0.70;;;16.00;71.70;;;;;;5032435;28;20030;-67
2023/04/24 06:43:31;;;;;;;1.10;0.77;;;15.90;71.60;;;;;;5032550;28;20088;-68
2023/04/24 06:45:58;;;;;;;5.53;1.45;;;16.00;71.70;;;;;;5032518;28;20025;-67
2023/04/24 06:48:25;;;;;;;4.10;0.73;;;16.00;72.10;;;;;;5032044;28;20037;-67
2023/04/24 06:50:50;;;;;;;3.00;0.90;;;16.00;72.70;;;;;;5029442;28;20021;-67
2023/04/24 06:53:16;;;;;;;4.53;1.00;;;16.00;73.30;;;;;;5030225;28;20075;-67
2023/04/24 06:55:43;;;;;;;2.95;0.95;;;16.00;73.40;;;;;;5031284;28;20045;-67
2023/04/24 06:58:08;;;;;;;7.88;1.00;;;16.00;73.80;;;;;;5030125;28;20025;-67
2023/04/24 07:00:34;;;;;;;3.45;0.82;;;16.00;73.90;;;;;;5029419;28;20032;-67
2023/04/24 07:03:00;;;;;;;6.47;0.93;;;16.00;73.90;;;;;;5031187;28;20084;-67
2023/04/24 07:05:25;;;;;;;5.45;1.10;;;16.00;73.90;;;;;;5030260;28;20026;-67
2023/04/24 07:07:51;;;;;;;4.10;1.10;;;16.10;74.00;;;;;;5031331;28;20025;-67
2023/04/24 07:10:17;;;;;;;3.33;1.00;;;16.00;74.00;;;;;;5031642;28;20499;-67
2023/04/24 07:12:43;;;;;;;4.47;0.82;;;16.10;74.10;;;;;;5014537;28;20132;-67
2023/04/24 07:15:10;;;;;;;7.82;1.10;;;16.10;74.00;;;;;;5030951;28;20097;-67
2023/04/24 07:17:38;;;;;;;2.20;0.90;;;16.00;73.90;;;;;;5032202;28;20443;-67
2023/04/24 07:20:04;;;;;;;5.05;1.10;;;16.10;73.90;;;;;;5031888;28;20021;-67
2023/04/24 07:22:30;;;;;;;1.65;0.80;;;16.00;73.90;;;;;;5032078;28;20022;-67
2023/04/24 07:24:55;;;;;;;2.83;0.90;;;16.00;73.70;;;;;;5032326;28;20476;-67
2023/04/24 07:27:21;;;;;;;3.35;0.93;;;16.10;73.70;;;;;;5031924;28;20029;-67
2023/04/24 07:29:47;;;;;;;3.22;0.80;;;16.10;73.50;;;;;;5030713;28;20033;-67
2023/04/24 07:32:12;;;;;;;4.68;0.90;;;16.10;73.50;;;;;;5035057;28;20032;-67
2023/04/24 07:34:38;;;;;;;3.15;1.17;;;16.10;73.40;;;;;;5035662;28;20093;-67
2023/04/24 07:37:04;;;;;;;3.10;0.95;;;16.00;73.30;;;;;;5035815;28;20021;-67
2023/04/24 07:39:29;;;;;;;2.90;0.98;;;16.00;73.30;;;;;;5035726;28;20026;-67
2023/04/24 07:41:55;;;;;;;3.05;0.90;;;16.10;73.30;;;;;;5035671;28;20022;-67
2023/04/24 07:44:20;;;;;;;2.90;0.80;;;16.00;73.20;;;;;;5035511;28;20426;-67
2023/04/24 07:46:46;;;;;;;4.40;1.48;;;16.00;73.00;;;;;;5034513;28;20025;-67
2023/04/24 07:49:12;;;;;;;3.42;0.70;;;16.00;72.90;;;;;;5034182;28;20029;-67
2023/04/24 07:51:38;;;;;;;4.15;0.90;;;16.00;73.00;;;;;;5034296;28;20030;-67
2023/04/24 07:54:05;;;;;;;2.92;0.65;;;16.00;73.00;;;;;;5035629;28;20021;-67
2023/04/24 07:56:32;;;;;;;2.83;0.80;;;16.00;72.90;;;;;;5034106;28;20037;-67
2023/04/24 07:58:57;;;;;;;1.45;1.05;;;16.00;72.90;;;;;;5035164;28;20480;-67
2023/04/24 08:01:23;;;;;;;1.90;0.82;;;16.10;72.80;;;;;;5035056;28;20071;-67
2023/04/24 08:03:48;;;;;;;3.25;1.02;;;16.10;72.80;;;;;;5035213;28;20030;-67
2023/04/24 08:06:14;;;;;;;4.18;1.20;;;16.10;72.80;;;;;;5035152;28;20025;-67
2023/04/24 08:08:40;;;;;;;2.85;1.00;;;16.00;72.70;;;;;;5035276;28;20048;-67
2023/04/24 08:11:05;;;;;;;3.75;1.20;;;16.00;72.70;;;;;;5035148;28;20026;-67
2023/04/24 08:13:31;;;;;;;2.35;0.90;;;16.00;72.60;;;;;;5035014;28;20480;-67
2023/04/24 08:15:57;;;;;;;1.30;0.90;;;16.00;73.60;;;;;;5034088;28;20014;-67
2023/04/24 08:18:22;;;;;;;2.90;1.00;;;16.00;72.60;;;;;;5034830;28;20026;-67
2023/04/24 08:20:48;;;;;;;1.90;0.82;;;16.00;72.60;;;;;;5033815;28;20029;-67
2023/04/24 08:23:14;;;;;;;1.33;0.90;;;16.00;72.50;;;;;;5017293;28;20033;-67
2023/04/24 08:25:40;;;;;;;2.65;0.90;;;16.00;72.50;;;;;;5033837;28;20064;-67
2023/04/24 08:28:06;;;;;;;1.20;0.70;;;16.00;72.40;;;;;;5034869;28;20042;-67
2023/04/24 08:30:31;;;;;;;1.60;0.90;;;16.00;73.40;;;;;;5016999;28;20048;-67
2023/04/24 08:32:57;;;;;;;1.10;0.90;;;16.00;72.40;;;;;;5034766;28;20504;-67
2023/04/24 08:35:23;;;;;;;2.63;0.70;;;16.10;72.40;;;;;;5033393;28;20026;-67
2023/04/24 08:37:49;;;;;;;4.00;1.00;;;16.00;72.40;;;;;;5034872;28;20060;-67
2023/04/24 08:40:15;;;;;;;2.30;1.02;;;16.00;72.40;;;;;;5034745;28;20109;-67
2023/04/24 08:42:44;;;;;;;3.55;1.05;;;16.00;72.40;;;;;;5034160;28;20037;-67
2023/04/24 08:45:11;;;;;;;3.03;1.05;;;16.00;72.40;;;;;;5017076;28;20029;-67
2023/04/24 08:47:40;;;;;;;2.53;0.90;;;16.00;72.30;;;;;;5034414;28;20025;-67
2023/04/24 08:50:07;;;;;;;2.47;0.85;;;16.00;72.40;;;;;;5033229;28;20112;-67
2023/04/24 08:52:34;;;;;;;1.90;1.02;;;16.00;72.30;;;;;;5017001;28;20025;-67
2023/04/24 08:55:01;;;;;;;1.70;0.90;;;16.00;72.30;;;;;;5034532;28;20053;-67
2023/04/24 08:57:26;;;;;;;3.58;1.17;;;16.00;72.30;;;;;;5016759;28;20027;-67
2023/04/24 08:59:52;;;;;;;2.58;0.88;;;16.00;72.40;;;;;;5033048;28;20018;-67
2023/04/24 09:02:18;;;;;;;1.60;0.95;;;16.00;72.30;;;;;;5033910;28;20021;-67
2023/04/24 09:04:44;;;;;;;1.42;0.80;;;16.00;72.30;;;;;;5033173;28;20028;-67
2023/04/24 09:07:10;;;;;;;2.33;1.10;;;16.00;72.30;;;;;;5034174;28;20028;-67
2023/04/24 09:09:35;;;;;;;2.30;0.90;;;16.00;72.30;;;;;;5016567;28;20044;-67
2023/04/24 09:12:01;;;;;;;2.13;0.80;;;16.00;72.30;;;;;;5016375;28;20029;-67
2023/04/24 09:14:27;;;;;;;4.22;0.80;;;16.00;72.30;;;;;;5033844;28;20072;-67
2023/04/24 09:16:53;;;;;;;2.95;1.13;;;16.00;72.30;;;;;;5032919;28;20022;-67
2023/04/24 09:19:19;;;;;;;2.20;0.90;;;16.00;72.30;;;;;;5032647;28;20087;-67
2023/04/24 09:21:47;;;;;;;1.08;0.80;;;16.00;72.30;;;;;;5033912;28;20033;-67
2023/04/24 09:24:22;;;;;;;1.70;0.75;;;16.00;72.20;;;;;;5032749;28;20526;-67
2023/04/24 09:26:48;;;;;;;1.95;0.80;;;16.00;72.30;;;;;;5032727;28;20424;-67
2023/04/24 09:29:17;;;;;;;1.85;0.90;;;16.00;72.30;;;;;;5033393;28;20036;-67
2023/04/24 09:31:43;;;;;;;1.15;0.73;;;16.00;72.20;;;;;;5032516;28;20029;-67
2023/04/24 09:34:08;;;;;;;3.85;1.05;;;16.00;72.20;;;;;;5032529;28;20025;-67
2023/04/24 09:36:37;;;;;;;1.88;0.60;;;16.00;72.20;;;;;;5032418;28;20025;-67
2023/04/24 09:39:08;;;;;;;2.13;0.82;;;16.00;72.20;;;;;;5032553;28;20029;-67
2023/04/24 09:41:33;;;;;;;3.15;0.90;;;16.00;72.20;;;;;;5032615;28;20040;-67
2023/04/24 09:44:22;;;;;;;3.25;0.90;;;16.00;72.20;;;;;;5032037;28;20034;-67
2023/04/24 09:46:56;;;;;;;2.03;0.90;;;16.00;72.10;;;;;;5033328;28;20495;-67
2023/04/24 09:49:28;;;;;;;1.30;0.98;;;16.00;72.20;;;;;;5032176;28;20100;-67
2023/04/24 09:52:15;;;;;;;2.05;1.02;;;16.00;72.20;;;;;;5033358;28;20029;-67
2023/04/24 09:54:40;;;;;;;2.17;1.08;;;16.00;72.20;;;;;;5032289;28;20022;-67
2023/04/24 09:57:09;;;;;;;2.35;0.90;;;16.00;72.20;;;;;;5032017;28;20034;-67
2023/04/24 09:59:34;;;;;;;1.77;0.98;;;16.00;72.20;;;;;;5032857;28;20028;-67
2023/04/24 10:02:00;;;;;;;2.28;0.90;;;16.00;72.10;;;;;;5033126;28;20400;-67
2023/04/24 10:04:27;;;;;;;2.92;1.00;;;16.00;72.10;;;;;;5033045;28;20022;-67
2023/04/24 10:06:55;;;;;;;2.97;1.20;;;16.00;72.10;;;;;;5033036;28;20029;-67
2023/04/24 10:09:22;;;;;;;1.48;0.80;;;16.00;72.10;;;;;;5031845;28;20026;-67
2023/04/24 10:11:49;;;;;;;4.03;1.02;;;16.00;72.10;;;;;;5015446;28;20025;-67
2023/04/24 10:14:16;;;;;;;0.90;0.65;;;16.00;72.00;;;;;;5032886;28;20021;-67
2023/04/24 10:16:42;;;;;;;2.22;0.95;;;16.00;72.00;;;;;;5031776;28;20014;-67
2023/04/24 10:19:08;;;;;;;1.67;0.80;;;16.00;72.00;;;;;;5015332;28;20388;-67
2023/04/24 10:21:34;;;;;;;3.15;0.90;;;16.00;73.00;;;;;;5032912;28;20033;-67
2023/04/24 10:24:03;;;;;;;1.38;0.70;;;16.00;72.00;;;;;;5032777;28;20025;-67
2023/04/24 10:26:29;;;;;;;2.03;0.88;;;16.00;72.00;;;;;;5031542;28;20036;-67
2023/04/24 10:28:54;;;;;;;2.97;1.05;;;16.00;71.90;;;;;;5031502;28;20033;-67
2023/04/24 10:31:20;;;;;;;1.55;0.80;;;16.00;71.90;;;;;;5014797;28;20025;-67
2023/04/24 10:33:45;;;;;;;1.80;1.00;;;16.00;72.00;;;;;;5031545;28;20032;-67
2023/04/24 10:36:11;;;;;;;1.90;0.88;;;16.00;71.90;;;;;;5031504;28;20029;-67
2023/04/24 10:38:38;;;;;;;1.65;0.80;;;16.00;71.90;;;;;;5014810;28;20021;-67
2023/04/24 10:41:15;;;;;;;2.20;0.77;;;16.00;71.90;;;;;;5031452;28;20022;-67
2023/04/24 10:43:41;;;;;;;1.05;0.80;;;16.00;71.90;;;;;;5032125;28;20383;-67
2023/04/24 10:46:08;;;;;;;1.60;1.05;;;16.00;71.80;;;;;;5032422;28;20025;-67
2023/04/24 10:48:34;;;;;;;2.28;0.98;;;16.00;71.90;;;;;;5032404;28;20112;-67
2023/04/24 10:50:59;;;;;;;2.65;1.08;;;16.00;71.90;;;;;;5032398;28;20108;-67
2023/04/24 10:53:28;;;;;;;2.70;1.10;;;16.00;71.80;;;;;;5031082;28;20075;-67
2023/04/24 10:56:09;;;;;;;1.35;0.95;;;16.00;71.80;;;;;;5030758;28;20064;-67
2023/04/24 10:58:49;;;;;;;2.03;0.93;;;16.00;71.80;;;;;;5032280;28;20072;-67
2023/04/24 11:01:33;;;;;;;1.50;0.88;;;16.00;71.90;;;;;;5030992;28;20029;-67
2023/04/24 11:04:00;;;;;;;2.58;1.08;;;16.00;71.80;;;;;;5032292;28;20152;-67
2023/04/24 11:06:36;;;;;;;3.67;1.38;;;16.00;72.80;;;;;;5034713;28;20037;-67
2023/04/24 11:09:06;;;;;;;2.28;0.85;;;16.00;71.70;;;;;;5036396;28;20021;-67
2023/04/24 11:11:31;;;;;;;2.30;0.80;;;16.00;71.80;;;;;;5036134;28;20088;-67
2023/04/24 11:13:57;;;;;;;3.92;1.15;;;16.00;71.80;;;;;;5035199;28;20017;-67
2023/04/24 11:16:39;;;;;;;2.67;0.70;;;16.00;71.80;;;;;;5036210;28;20032;-67
2023/04/24 11:19:09;;;;;;;1.48;1.00;;;16.00;71.80;;;;;;5020245;28;20029;-67
2023/04/24 11:21:45;;;;;;;3.40;1.00;;;16.00;71.70;;;;;;5034852;28;20037;-67
2023/04/24 11:24:37;;;;;;;1.33;0.80;;;16.00;71.70;;;;;;5035019;28;20100;-67
2023/04/24 11:27:06;;;;;;;1.40;0.95;;;16.00;71.70;;;;;;5034755;28;20040;-67
2023/04/24 11:29:43;;;;;;;2.30;1.10;;;16.00;71.60;;;;;;5035951;28;20104;-67
2023/04/24 11:32:25;;;;;;;2.38;0.70;;;16.00;72.60;;;;;;5018797;28;20032;-67
2023/04/24 11:35:01;;;;;;;2.25;0.90;;;16.00;71.60;;;;;;5035921;28;20045;-67
2023/04/24 11:37:35;;;;;;;2.90;1.00;;;16.00;71.70;;;;;;5035995;28;20056;-67
2023/04/24 11:40:00;;;;;;;2.20;0.90;;;16.00;71.70;;;;;;5035590;28;20488;-67
2023/04/24 11:42:26;;;;;;;2.58;0.90;;;16.00;71.60;;;;;;5035706;28;20021;-67
2023/04/24 11:44:52;;;;;;;2.97;1.00;;;16.00;71.70;;;;;;5035765;28;20476;-67
2023/04/24 11:47:18;;;;;;;2.42;1.20;;;16.00;71.60;;;;;;5034527;28;20037;-67
2023/04/24 11:49:44;;;;;;;1.88;0.93;;;16.00;71.60;;;;;;5034414;28;20415;-67
2023/04/24 11:52:10;;;;;;;2.13;0.90;;;16.00;71.60;;;;;;5034297;28;20053;-67
2023/04/24 11:54:37;;;;;;;2.85;1.45;;;16.00;71.60;;;;;;5034089;28;20029;-67
2023/04/24 11:57:07;;;;;;;2.38;1.00;;;16.00;71.60;;;;;;5035559;28;20029;-67
2023/04/24 11:59:37;;;;;;;3.80;1.30;;;16.00;71.60;;;;;;5035341;28;20546;-67
2023/04/24 12:02:03;;;;;;;2.30;0.90;;;16.00;71.60;;;;;;5035505;28;20026;-67
2023/04/24 12:04:38;;;;;;;2.45;1.20;;;16.00;71.60;;;;;;5034019;28;20033;-67
2023/04/24 12:07:04;;;;;;;3.05;1.00;;;16.00;71.60;;;;;;5034176;28;20025;-67
2023/04/24 12:09:50;;;;;;;2.28;1.10;;;16.00;71.60;;;;;;5033908;28;20029;-67
2023/04/24 12:12:17;;;;;;;1.65;1.02;;;16.00;71.60;;;;;;5034194;28;20047;-67
2023/04/24 12:14:50;;;;;;;3.15;1.10;;;16.00;71.60;;;;;;5033868;28;20010;-67
2023/04/24 12:17:24;;;;;;;2.17;1.00;;;16.00;71.60;;;;;;5033075;28;20033;-67
2023/04/24 12:19:50;;;;;;;3.30;1.15;;;16.00;71.60;;;;;;5035095;28;20025;-67
2023/04/24 12:22:16;;;;;;;2.38;1.20;;;16.00;71.60;;;;;;5035294;28;20108;-67
2023/04/24 12:24:57;;;;;;;3.08;1.27;;;16.00;71.50;;;;;;5033564;28;20075;-67
2023/04/24 12:27:23;;;;;;;2.42;1.20;;;16.00;71.50;;;;;;5034998;28;20026;-67
2023/04/24 12:30:11;;;;;;;4.60;1.55;;;16.00;71.50;;;;;;5034868;28;20400;-67
2023/04/24 12:32:41;;;;;;;2.70;1.20;;;16.00;71.40;;;;;;5034828;28;20056;-67
2023/04/24 12:35:07;;;;;;;1.98;1.25;;;16.00;71.50;;;;;;5034832;28;20052;-67
2023/04/24 12:37:33;;;;;;;2.92;1.10;;;16.00;71.50;;;;;;5034693;28;20050;-67
2023/04/24 12:40:17;;;;;;;3.42;1.05;;;16.00;71.50;;;;;;5034775;28;20452;-67
2023/04/24 12:42:50;;;;;;;4.15;1.73;;;16.00;71.50;;;;;;5034555;28;20056;-67
2023/04/24 12:45:16;;;;;;;2.53;1.05;;;16.00;71.40;;;;;;5033575;28;20438;-67
2023/04/24 12:47:42;;;;;;;2.80;1.05;;;16.00;71.40;;;;;;5034638;28;20028;-67